createdAt,value
2022-10-10T00:01:14.813Z,82.78
2022-10-10T00:03:42.020Z,82.27
2022-10-10T00:06:09.197Z,82.12
2022-10-10T00:08:35.862Z,82.02
2022-10-10T00:11:02.390Z,81.61
2022-10-10T00:13:28.827Z,82.00
2022-10-10T00:15:55.246Z,81.67
2022-10-10T00:18:22.140Z,82.08
2022-10-10T00:20:51.727Z,81.83
2022-10-10T00:23:19.070Z,82.01
2022-10-10T00:25:45.466Z,82.13
2022-10-10T00:28:12.640Z,81.98
2022-10-10T00:30:39.661Z,81.72
2022-10-10T00:33:06.341Z,81.47
2022-10-10T00:35:32.759Z,81.50
2022-10-10T00:37:59.118Z,81.29
2022-10-10T00:40:25.822Z,81.03
2022-10-10T00:42:52.530Z,80.77
2022-10-10T00:45:39.626Z,80.99
2022-10-10T00:48:16.391Z,80.97
2022-10-10T00:50:52.409Z,80.57
2022-10-10T00:53:30.992Z,80.50
2022-10-10T00:55:57.896Z,79.72
2022-10-10T00:58:24.588Z,79.64
2022-10-10T01:00:52.368Z,79.59
2022-10-10T01:03:18.892Z,79.24
2022-10-10T01:05:47.537Z,79.12
2022-10-10T01:08:14.862Z,79.19
2022-10-10T01:11:20.141Z,79.34
2022-10-10T01:14:09.507Z,78.63
2022-10-10T01:16:55.091Z,79.09
2022-10-10T01:19:24.346Z,78.44
2022-10-10T01:22:09.609Z,78.42
2022-10-10T01:24:51.172Z,78.51
2022-10-10T01:27:47.650Z,78.76
2022-10-10T01:30:21.827Z,78.31
2022-10-10T01:32:54.402Z,78.00
2022-10-10T01:35:49.931Z,78.39
2022-10-10T01:38:39.018Z,78.72
2022-10-10T01:41:16.181Z,78.87
2022-10-10T01:43:42.945Z,78.47
2022-10-10T01:46:16.307Z,78.94
2022-10-10T01:48:50.126Z,78.58
2022-10-10T01:51:40.835Z,79.08
2022-10-10T01:54:24.427Z,79.19
2022-10-10T01:57:15.759Z,79.41
2022-10-10T02:00:09.066Z,78.98
2022-10-10T02:03:01.819Z,79.38
2022-10-10T02:05:28.146Z,78.71
2022-10-10T02:08:03.245Z,79.05
2022-10-10T02:10:37.400Z,79.64
2022-10-10T02:13:05.343Z,79.53
2022-10-10T02:15:41.224Z,79.66
2022-10-10T02:18:11.857Z,79.38
2022-10-10T02:20:39.569Z,79.24
2022-10-10T02:23:07.103Z,79.62
2022-10-10T02:25:39.092Z,80.04
2022-10-10T02:28:17.600Z,80.40
2022-10-10T02:30:46.898Z,80.23
2022-10-10T02:33:19.341Z,80.52
2022-10-10T02:35:50.186Z,80.22
2022-10-10T02:38:18.391Z,80.48
2022-10-10T02:40:47.605Z,79.95
2022-10-10T02:43:15.266Z,80.35
2022-10-10T02:45:43.925Z,80.28
2022-10-10T02:48:10.553Z,80.19
2022-10-10T02:50:37.587Z,80.51
2022-10-10T02:53:04.083Z,80.53
2022-10-10T02:55:30.458Z,80.63
2022-10-10T02:57:57.071Z,80.51
2022-10-10T03:00:23.402Z,80.39
2022-10-10T03:02:50.224Z,80.72
2022-10-10T03:05:16.836Z,80.48
2022-10-10T03:07:43.236Z,80.83
2022-10-10T03:10:10.772Z,80.78
2022-10-10T03:12:37.238Z,80.67
2022-10-10T03:15:09.188Z,80.68
2022-10-10T03:17:37.844Z,80.96
2022-10-10T03:20:05.024Z,80.93
2022-10-10T03:22:31.451Z,80.96
2022-10-10T03:24:57.785Z,81.08
2022-10-10T03:27:24.265Z,81.01
2022-10-10T03:29:50.663Z,81.33
2022-10-10T03:32:17.019Z,81.47
2022-10-10T03:34:43.427Z,81.94
2022-10-10T03:37:10.142Z,82.00
2022-10-10T03:39:36.539Z,81.58
2022-10-10T03:42:03.054Z,81.17
2022-10-10T03:44:29.397Z,81.23
2022-10-10T03:46:55.767Z,81.08
2022-10-10T03:49:22.300Z,80.79
2022-10-10T03:51:48.867Z,81.21
2022-10-10T03:54:15.254Z,81.22
2022-10-10T03:56:41.593Z,81.74
2022-10-10T03:59:08.174Z,81.59
2022-10-10T04:01:34.842Z,82.25
2022-10-10T04:04:01.479Z,82.05
2022-10-10T04:06:28.410Z,81.80
2022-10-10T04:08:54.933Z,82.28
2022-10-10T04:11:22.128Z,82.24
2022-10-10T04:13:48.670Z,82.78
2022-10-10T04:16:15.251Z,82.50
2022-10-10T04:18:41.743Z,82.52
2022-10-10T04:21:12.372Z,82.54
2022-10-10T04:23:40.533Z,82.26
2022-10-10T04:26:07.780Z,82.61
2022-10-10T04:28:34.419Z,82.86
2022-10-10T04:31:00.901Z,82.93
2022-10-10T04:33:27.239Z,83.21
2022-10-10T04:35:53.696Z,82.86
2022-10-10T04:38:21.343Z,83.12
2022-10-10T04:40:49.978Z,82.95
2022-10-10T04:43:16.772Z,83.28
2022-10-10T04:45:43.142Z,83.35
2022-10-10T04:48:09.484Z,83.11
2022-10-10T04:50:35.950Z,83.21
2022-10-10T04:53:02.588Z,83.39
2022-10-10T04:55:29.121Z,83.18
2022-10-10T04:57:55.588Z,83.15
2022-10-10T05:00:21.951Z,83.51
2022-10-10T05:02:48.638Z,83.33
2022-10-10T05:05:15.525Z,83.32
2022-10-10T05:07:42.068Z,83.03
2022-10-10T05:10:08.907Z,83.40
2022-10-10T05:12:35.461Z,83.41
2022-10-10T05:15:01.850Z,83.60
2022-10-10T05:17:28.231Z,83.62
2022-10-10T05:19:54.631Z,83.65
2022-10-10T05:22:20.999Z,84.02
2022-10-10T05:24:47.364Z,83.53
2022-10-10T05:27:13.759Z,83.52
2022-10-10T05:29:40.159Z,84.08
2022-10-10T05:32:10.054Z,84.04
2022-10-10T05:34:39.629Z,83.92
2022-10-10T05:37:06.043Z,83.96
2022-10-10T05:39:32.565Z,83.94
2022-10-10T05:41:59.072Z,84.27
2022-10-10T05:44:25.415Z,84.10
2022-10-10T05:46:51.777Z,84.44
2022-10-10T05:49:18.235Z,84.43
2022-10-10T05:51:44.659Z,84.68
2022-10-10T05:54:11.293Z,84.86
2022-10-10T05:56:37.858Z,84.88
2022-10-10T05:59:04.286Z,84.58
2022-10-10T06:01:30.865Z,84.87
2022-10-10T06:03:57.286Z,84.84
2022-10-10T06:06:25.364Z,85.08
2022-10-10T06:08:52.208Z,84.80
2022-10-10T06:11:20.490Z,84.83
2022-10-10T06:13:49.750Z,85.45
2022-10-10T06:16:16.755Z,85.05
2022-10-10T06:18:43.142Z,85.32
2022-10-10T06:21:11.644Z,85.18
2022-10-10T06:23:38.218Z,85.06
2022-10-10T06:26:04.650Z,85.14
2022-10-10T06:28:31.060Z,84.84
2022-10-10T06:31:01.946Z,85.49
2022-10-10T06:33:28.382Z,85.34
2022-10-10T06:35:55.106Z,84.86
2022-10-10T06:38:22.075Z,85.12
2022-10-10T06:40:48.491Z,84.64
2022-10-10T06:43:16.296Z,84.63
2022-10-10T06:45:45.884Z,84.49
2022-10-10T06:48:14.075Z,84.52
2022-10-10T06:50:40.486Z,84.19
2022-10-10T06:53:07.127Z,84.69
2022-10-10T06:55:33.498Z,84.57
2022-10-10T06:57:59.919Z,84.35
2022-10-10T07:00:26.622Z,84.29
2022-10-10T07:02:53.421Z,84.04
2022-10-10T07:05:20.047Z,84.05
2022-10-10T07:07:46.536Z,83.95
2022-10-10T07:10:14.909Z,83.94
2022-10-10T07:12:44.803Z,83.72
2022-10-10T07:15:11.897Z,83.88
2022-10-10T07:17:38.717Z,82.86
2022-10-10T07:20:05.761Z,82.72
2022-10-10T07:22:32.235Z,82.26
2022-10-10T07:24:58.589Z,82.05
2022-10-10T07:27:24.977Z,81.58
2022-10-10T07:29:51.379Z,81.12
2022-10-10T07:32:17.856Z,80.45
2022-10-10T07:34:44.214Z,80.76
2022-10-10T07:37:10.630Z,80.35
2022-10-10T07:39:37.139Z,80.19
2022-10-10T07:42:03.763Z,79.67
2022-10-10T07:44:34.275Z,79.39
2022-10-10T07:47:00.991Z,78.92
2022-10-10T07:49:27.503Z,78.54
2022-10-10T07:51:58.590Z,77.85
2022-10-10T07:54:28.124Z,77.53
2022-10-10T07:56:54.608Z,77.30
2022-10-10T07:59:24.256Z,76.85
2022-10-10T08:01:51.313Z,76.31
2022-10-10T08:04:18.655Z,76.01
2022-10-10T08:06:45.049Z,75.73
2022-10-10T08:09:11.615Z,75.13
2022-10-10T08:11:38.150Z,74.01
2022-10-10T08:14:04.585Z,74.02
2022-10-10T08:16:31.051Z,73.25
2022-10-10T08:18:57.571Z,72.97
2022-10-10T08:21:24.083Z,72.33
2022-10-10T08:23:50.465Z,72.43
2022-10-10T08:26:18.168Z,72.54
2022-10-10T08:28:45.266Z,72.05
2022-10-10T08:31:17.252Z,71.36
2022-10-10T08:33:45.936Z,71.01
2022-10-10T08:36:15.482Z,71.54
2022-10-10T08:38:42.280Z,70.49
2022-10-10T08:41:34.933Z,71.06
2022-10-10T08:44:06.386Z,69.67
2022-10-10T08:46:41.045Z,69.59
2022-10-10T08:49:29.987Z,68.61
2022-10-10T08:52:05.277Z,68.30
2022-10-10T08:54:33.616Z,68.42
2022-10-10T08:57:03.431Z,68.43
2022-10-10T08:59:35.498Z,68.39
2022-10-10T09:02:50.284Z,67.79
2022-10-10T09:05:26.987Z,67.51
2022-10-10T09:07:56.316Z,66.43
2022-10-10T09:10:39.656Z,66.56
2022-10-10T09:13:12.807Z,64.57
2022-10-10T09:15:54.426Z,65.50
2022-10-10T09:18:32.856Z,66.09
2022-10-10T09:21:12.667Z,65.05
2022-10-10T09:23:49.081Z,65.41
2022-10-10T09:26:20.781Z,64.50
2022-10-10T09:29:15.826Z,64.18
2022-10-10T09:31:46.051Z,63.69
2022-10-10T09:34:15.243Z,65.70
2022-10-10T09:36:45.046Z,63.22
2022-10-10T09:39:27.372Z,63.11
2022-10-10T09:42:01.732Z,60.78
2022-10-10T09:44:29.398Z,59.11
2022-10-10T09:46:56.229Z,57.70
2022-10-10T09:49:24.926Z,56.89
2022-10-10T09:51:52.016Z,56.43
2022-10-10T09:54:20.105Z,55.67
2022-10-10T09:56:58.033Z,55.48
2022-10-10T09:59:41.275Z,53.88
2022-10-10T10:02:25.258Z,51.98
2022-10-10T10:04:53.054Z,51.04
2022-10-10T10:07:21.030Z,49.21
2022-10-10T10:09:59.674Z,50.81
2022-10-10T10:12:36.818Z,49.40
2022-10-10T10:15:16.056Z,49.43
2022-10-10T10:17:42.676Z,49.15
2022-10-10T10:20:31.433Z,50.85
2022-10-10T10:22:57.879Z,48.99
2022-10-10T10:25:37.112Z,48.36
2022-10-10T10:28:14.932Z,48.45
2022-10-10T10:30:43.446Z,50.22
2022-10-10T10:33:18.665Z,48.92
2022-10-10T10:36:13.546Z,48.40
2022-10-10T10:38:39.971Z,47.81
2022-10-10T10:41:32.307Z,47.97
2022-10-10T10:44:14.764Z,47.94
2022-10-10T10:46:57.293Z,47.97
2022-10-10T10:50:08.618Z,48.99
2022-10-10T10:52:40.857Z,47.54
2022-10-10T10:55:33.234Z,46.26
2022-10-10T11:01:57.367Z,45.14
2022-10-10T11:05:17.267Z,44.40
2022-10-10T11:07:57.806Z,43.81
2022-10-10T11:10:35.154Z,44.45
2022-10-10T11:13:39.221Z,45.28
2022-10-10T11:16:46.792Z,47.14
2022-10-10T11:19:37.187Z,46.50
2022-10-10T11:22:13.883Z,46.75
2022-10-10T11:24:51.884Z,46.75
2022-10-10T11:27:39.228Z,47.39
2022-10-10T11:30:08.135Z,47.70
2022-10-10T11:32:48.530Z,47.04
2022-10-10T11:35:27.043Z,46.73
2022-10-10T11:38:01.343Z,46.48
2022-10-10T11:40:45.503Z,46.56
2022-10-10T11:43:19.593Z,46.73
2022-10-10T11:45:52.323Z,46.60
2022-10-10T11:48:35.536Z,46.78
2022-10-10T11:51:16.396Z,46.33
2022-10-10T11:53:45.777Z,46.12
2022-10-10T11:56:28.614Z,46.58
2022-10-10T11:59:01.861Z,46.55
2022-10-10T12:01:30.960Z,45.43
2022-10-10T12:03:57.536Z,45.60
2022-10-10T12:06:30.608Z,45.99
2022-10-10T12:09:03.688Z,46.53
2022-10-10T12:11:36.510Z,46.22
2022-10-10T12:14:07.263Z,46.29
2022-10-10T12:16:37.847Z,46.85
2022-10-10T12:19:07.091Z,46.18
2022-10-10T12:21:56.091Z,47.21
2022-10-10T12:24:24.213Z,46.32
2022-10-10T12:26:56.643Z,47.30
2022-10-10T12:30:01.618Z,48.08
2022-10-10T12:32:41.020Z,48.33
2022-10-10T12:35:29.335Z,47.79
2022-10-10T12:38:04.720Z,48.66
2022-10-10T12:40:32.893Z,48.47
2022-10-10T12:43:02.142Z,48.62
2022-10-10T12:45:28.532Z,48.14
2022-10-10T12:48:06.367Z,48.76
2022-10-10T12:50:39.749Z,47.67
2022-10-10T12:53:18.009Z,47.70
2022-10-10T12:55:51.872Z,47.24
2022-10-10T12:58:27.103Z,47.67
2022-10-10T13:00:57.909Z,48.22
2022-10-10T13:03:27.210Z,48.22
2022-10-10T13:06:03.009Z,47.93
2022-10-10T13:08:30.586Z,47.89
2022-10-10T13:11:11.969Z,48.53
2022-10-10T13:13:40.421Z,48.92
2022-10-10T13:16:13.127Z,48.07
2022-10-10T13:18:52.598Z,48.17
2022-10-10T13:21:23.693Z,48.00
2022-10-10T13:26:44.875Z,48.08
2022-10-10T13:29:32.434Z,48.45
2022-10-10T13:32:23.995Z,48.56
2022-10-10T13:34:55.535Z,49.02
2022-10-10T13:37:22.885Z,49.15
2022-10-10T13:39:50.850Z,48.81
2022-10-10T13:42:39.714Z,49.15
2022-10-10T13:45:38.131Z,49.52
2022-10-10T13:48:04.445Z,49.14
2022-10-10T13:50:35.371Z,49.96
2022-10-10T13:53:27.147Z,49.99
2022-10-10T13:56:10.286Z,51.15
2022-10-10T13:58:56.188Z,50.14
2022-10-10T14:01:43.556Z,50.74
2022-10-10T14:04:12.916Z,51.17
2022-10-10T14:06:41.063Z,52.17
2022-10-10T14:09:15.778Z,51.67
2022-10-10T14:11:43.403Z,51.07
2022-10-10T14:14:17.632Z,52.50
2022-10-10T14:16:43.975Z,51.40
2022-10-10T14:19:19.412Z,51.58
2022-10-10T14:21:45.769Z,51.51
2022-10-10T14:24:12.182Z,51.82
2022-10-10T14:26:38.810Z,52.54
2022-10-10T14:29:10.443Z,53.41
2022-10-10T14:31:36.852Z,52.31
2022-10-10T14:34:03.284Z,53.08
2022-10-10T14:36:29.686Z,52.71
2022-10-10T14:38:56.108Z,52.89
2022-10-10T14:41:22.622Z,52.40
2022-10-10T14:43:49.003Z,52.74
2022-10-10T14:46:19.629Z,52.85
2022-10-10T14:48:46.876Z,52.78
2022-10-10T14:51:34.205Z,53.37
2022-10-10T14:54:11.870Z,53.44
2022-10-10T14:57:08.634Z,53.50
2022-10-10T14:59:49.254Z,53.41
2022-10-10T15:02:15.546Z,54.01
2022-10-10T15:04:42.102Z,53.93
2022-10-10T15:07:14.247Z,54.21
2022-10-10T15:09:51.523Z,54.56
2022-10-10T15:12:27.820Z,54.92
2022-10-10T15:14:54.214Z,55.43
2022-10-10T15:17:20.640Z,55.43
2022-10-10T15:19:47.012Z,55.39
2022-10-10T15:22:13.359Z,55.58
2022-10-10T15:24:39.719Z,55.98
2022-10-10T15:27:06.055Z,55.80
2022-10-10T15:29:32.539Z,55.99
2022-10-10T15:32:00.518Z,56.24
2022-10-10T15:34:27.228Z,56.45
2022-10-10T15:36:56.658Z,56.68
2022-10-10T15:39:23.193Z,56.50
2022-10-10T15:41:49.557Z,56.38
2022-10-10T15:44:18.133Z,56.75
2022-10-10T15:46:45.307Z,56.23
2022-10-10T15:49:13.450Z,56.19
2022-10-10T15:51:45.159Z,55.87
2022-10-10T15:54:12.431Z,55.90
2022-10-10T15:56:42.230Z,56.66
2022-10-10T15:59:09.490Z,57.15
2022-10-10T16:01:36.130Z,57.82
2022-10-10T16:04:04.592Z,58.05
2022-10-10T16:06:31.034Z,58.56
2022-10-10T16:09:23.411Z,59.06
2022-10-10T16:11:43.841Z,59.80
2022-10-10T16:14:10.695Z,60.43
2022-10-10T16:16:37.155Z,61.54
2022-10-10T16:19:03.695Z,62.33
2022-10-10T16:21:31.534Z,64.33
2022-10-10T16:23:58.307Z,64.82
2022-10-10T16:26:29.177Z,66.04
2022-10-10T16:28:56.762Z,67.45
2022-10-10T16:31:25.000Z,68.89
2022-10-10T16:33:52.174Z,69.97
2022-10-10T16:36:21.859Z,71.49
2022-10-10T16:38:49.984Z,72.39
2022-10-10T16:41:42.620Z,73.31
2022-10-10T16:44:04.562Z,74.10
2022-10-10T16:46:30.993Z,75.68
2022-10-10T16:48:59.515Z,76.92
2022-10-10T16:51:28.332Z,77.80
2022-10-10T16:53:55.530Z,78.46
2022-10-10T16:56:22.324Z,79.70
2022-10-10T16:58:50.616Z,80.55
2022-10-10T17:01:23.617Z,81.95
2022-10-10T17:03:51.340Z,82.27
2022-10-10T17:06:20.994Z,82.85
2022-10-10T17:08:49.455Z,83.28
2022-10-10T17:11:17.691Z,84.20
2022-10-10T17:13:44.874Z,84.28
2022-10-10T17:19:03.891Z,84.94
2022-10-10T17:21:31.354Z,84.92
2022-10-10T17:24:03.318Z,84.12
2022-10-10T17:26:29.694Z,81.85
2022-10-10T17:28:57.694Z,80.77
2022-10-10T17:31:25.274Z,79.97
2022-10-10T17:33:54.319Z,79.85
2022-10-10T17:36:23.747Z,80.38
2022-10-10T17:38:50.491Z,79.67
2022-10-10T17:41:18.432Z,80.13
2022-10-10T17:43:45.565Z,80.02
2022-10-10T17:46:35.750Z,80.09
2022-10-10T17:49:04.971Z,80.42
2022-10-10T17:51:31.388Z,80.79
2022-10-10T17:54:01.594Z,81.84
2022-10-10T17:56:28.000Z,80.59
2022-10-10T17:58:54.700Z,81.15
2022-10-10T18:01:22.145Z,81.66
2022-10-10T18:03:49.012Z,82.38
2022-10-10T18:06:21.325Z,82.67
2022-10-10T18:08:51.939Z,82.53
2022-10-10T18:11:22.174Z,83.14
2022-10-10T18:13:48.996Z,81.43
2022-10-10T18:16:18.670Z,81.94
2022-10-10T18:18:50.725Z,81.94
2022-10-10T18:21:18.927Z,82.92
2022-10-10T18:23:45.505Z,82.92
2022-10-10T18:26:15.398Z,83.29
2022-10-10T18:28:42.629Z,83.42
2022-10-10T18:31:17.934Z,83.80
2022-10-10T18:33:44.997Z,83.61
2022-10-10T18:36:14.494Z,83.91
2022-10-10T18:38:41.511Z,83.52
2022-10-10T18:41:13.571Z,84.28
2022-10-10T18:43:40.696Z,84.32
2022-10-10T18:46:09.037Z,84.67
2022-10-10T18:48:36.480Z,84.77
2022-10-10T18:51:11.834Z,85.78
2022-10-10T18:53:47.488Z,85.45
2022-10-10T18:56:16.557Z,85.18
2022-10-10T18:58:42.955Z,85.41
2022-10-10T19:01:12.779Z,86.15
2022-10-10T19:03:40.471Z,86.02
2022-10-10T19:06:09.737Z,86.77
2022-10-10T19:08:37.174Z,86.87
2022-10-10T19:11:05.956Z,86.92
2022-10-10T19:13:33.649Z,87.11
2022-10-10T19:16:04.780Z,87.39
2022-10-10T19:18:31.275Z,87.20
2022-10-10T19:21:04.415Z,88.49
2022-10-10T19:23:32.130Z,88.45
2022-10-10T19:26:02.268Z,88.82
2022-10-10T19:28:28.769Z,88.58
2022-10-10T19:30:55.771Z,88.96
2022-10-10T19:33:22.243Z,89.26
2022-10-10T19:35:51.423Z,89.35
2022-10-10T19:38:19.278Z,89.20
2022-10-10T19:40:47.115Z,89.40
2022-10-10T19:43:14.521Z,89.74
2022-10-10T19:45:42.565Z,89.91
2022-10-10T19:48:09.137Z,90.15
2022-10-10T19:50:40.696Z,91.23
2022-10-10T19:53:07.769Z,91.24
2022-10-10T19:55:34.238Z,91.13
2022-10-10T19:58:00.633Z,91.39
2022-10-10T20:00:27.357Z,91.25
2022-10-10T20:02:53.695Z,91.28
2022-10-10T20:05:20.847Z,91.15
2022-10-10T20:07:50.433Z,91.50
2022-10-10T20:10:17.568Z,91.32
2022-10-10T20:12:43.972Z,90.93
2022-10-10T20:15:10.779Z,91.53
2022-10-10T20:17:37.568Z,91.07
2022-10-10T20:20:05.312Z,91.12
2022-10-10T20:22:34.282Z,90.50
2022-10-10T20:25:01.329Z,90.38
2022-10-10T20:27:31.251Z,90.78
2022-10-10T20:29:58.239Z,90.56
2022-10-10T20:32:24.673Z,90.87
2022-10-10T20:34:51.040Z,90.99
2022-10-10T20:37:17.376Z,90.99
2022-10-10T20:39:43.738Z,91.00
2022-10-10T20:42:10.222Z,91.15
2022-10-10T20:44:36.809Z,91.11
2022-10-10T20:47:03.332Z,90.83
2022-10-10T20:49:29.841Z,90.91
2022-10-10T20:51:56.216Z,90.95
2022-10-10T20:54:24.617Z,90.81
2022-10-10T20:56:51.434Z,91.16
2022-10-10T20:59:19.410Z,91.16
2022-10-10T21:01:45.936Z,91.42
2022-10-10T21:04:14.039Z,91.49
2022-10-10T21:06:42.697Z,91.71
2022-10-10T21:09:10.886Z,91.59
2022-10-10T21:11:39.026Z,91.33
2022-10-10T21:14:06.545Z,91.82
2022-10-10T21:16:36.218Z,91.79
2022-10-10T21:19:03.489Z,91.17
2022-10-10T21:21:32.482Z,91.48
2022-10-10T21:23:59.491Z,91.09
2022-10-10T21:26:28.156Z,91.92
2022-10-10T21:28:55.838Z,91.83
2022-10-10T21:31:31.225Z,92.00
2022-10-10T21:33:59.949Z,91.85
2022-10-10T21:36:26.729Z,91.89
2022-10-10T21:38:55.890Z,91.84
2022-10-10T21:41:23.649Z,91.66
2022-10-10T21:43:54.599Z,92.04
2022-10-10T21:46:24.338Z,92.01
2022-10-10T21:48:53.806Z,91.98
2022-10-10T21:51:21.464Z,91.93
2022-10-10T21:53:48.459Z,91.65
2022-10-10T21:56:15.244Z,91.83
2022-10-10T21:58:43.764Z,91.58
2022-10-10T22:01:13.230Z,91.51
2022-10-10T22:03:39.635Z,91.33
2022-10-10T22:06:10.500Z,91.74
2022-10-10T22:08:38.155Z,91.34
2022-10-10T22:11:07.504Z,91.60
2022-10-10T22:13:33.990Z,91.77
2022-10-10T22:16:01.102Z,92.15
2022-10-10T22:18:27.664Z,91.88
2022-10-10T22:20:54.369Z,92.07
2022-10-10T22:23:21.282Z,92.31
2022-10-10T22:25:49.659Z,92.25
2022-10-10T22:28:16.865Z,91.97
2022-10-10T22:30:43.962Z,92.01
2022-10-10T22:33:10.687Z,92.04
2022-10-10T22:35:37.274Z,91.91
2022-10-10T22:38:04.172Z,91.91
2022-10-10T22:40:30.977Z,92.09
2022-10-10T22:42:57.864Z,92.29
2022-10-10T22:45:24.611Z,92.37
2022-10-10T22:47:51.061Z,92.28
2022-10-10T22:50:18.383Z,92.19
2022-10-10T22:52:45.096Z,91.99
2022-10-10T22:55:17.221Z,91.99
2022-10-10T22:57:44.742Z,91.51
2022-10-10T23:00:12.338Z,91.67
2022-10-10T23:02:39.051Z,91.71
2022-10-10T23:05:06.084Z,92.05
2022-10-10T23:07:32.778Z,91.71
2022-10-10T23:09:59.180Z,92.20
2022-10-10T23:12:25.556Z,92.13
2022-10-10T23:14:52.028Z,92.12
2022-10-10T23:17:18.457Z,92.33
2022-10-10T23:19:44.885Z,92.47
2022-10-10T23:22:12.789Z,92.39
2022-10-10T23:24:39.921Z,92.22
2022-10-10T23:27:06.377Z,92.04
2022-10-10T23:29:33.101Z,91.99
2022-10-10T23:31:59.599Z,91.71
2022-10-10T23:34:26.131Z,91.72
2022-10-10T23:36:52.804Z,91.95
2022-10-10T23:39:19.188Z,91.76
2022-10-10T23:41:45.674Z,91.83
2022-10-10T23:44:12.138Z,91.91
2022-10-10T23:46:38.780Z,91.94
2022-10-10T23:49:05.148Z,91.88
2022-10-10T23:51:32.150Z,91.78
2022-10-10T23:53:58.715Z,91.78
2022-10-10T23:56:25.226Z,91.53
2022-10-10T23:58:51.666Z,91.28
